Time;durP1;ratioP1;P1;durP2;ratioP2;P2;SDS_P1;SDS_P2;PMS_P1;PMS_P2;Temp;Humidity;BMP_temperature;BMP_pressure;BME280_temperature;BME280_humidity;BME280_pressure;Samples;Min_cycle;Max_cycle;Signal;HPM_P1;HPM_P2
2024/01/05 00:00:00;;;;;;;10.52;4.75;;;0.90;99.90;;;;;;4970218;28;20066;-60
2024/01/05 00:02:33;;;;;;;7.90;4.38;;;0.90;99.90;;;;;;4974443;28;20051;-59
2024/01/05 00:04:59;;;;;;;11.05;4.32;;;0.90;99.90;;;;;;4974495;28;20035;-60
2024/01/05 00:07:26;;;;;;;7.78;4.32;;;0.90;99.90;;;;;;4967998;28;20043;-60
2024/01/05 00:09:53;;;;;;;9.55;4.43;;;0.90;99.90;;;;;;4973496;28;20039;-58
2024/01/05 00:12:20;;;;;;;8.70;4.65;;;0.90;99.90;;;;;;4970208;28;20122;-60
2024/01/05 00:14:46;;;;;;;11.02;4.38;;;0.90;99.90;;;;;;4967836;28;20050;-60
2024/01/05 00:17:13;;;;;;;11.05;4.47;;;0.90;99.90;;;;;;4965254;28;20050;-60
2024/01/05 00:19:40;;;;;;;7.70;3.42;;;1.00;99.90;;;;;;4960251;28;20117;-59
2024/01/05 00:22:07;;;;;;;8.98;4.57;;;1.00;99.90;;;;;;4957577;28;20093;-58
2024/01/05 00:24:36;;;;;;;6.72;3.95;;;1.00;99.90;;;;;;4969622;28;20046;-60
2024/01/05 00:27:04;;;;;;;10.20;4.43;;;1.10;99.90;;;;;;4973292;28;20061;-60
2024/01/05 00:29:30;;;;;;;8.63;3.85;;;1.10;99.90;;;;;;4956025;28;20051;-60
2024/01/05 00:31:57;;;;;;;9.77;3.85;;;1.10;99.90;;;;;;4946469;28;20059;-59
2024/01/05 00:34:24;;;;;;;7.18;3.38;;;1.10;99.90;;;;;;4968663;28;20518;-60
2024/01/05 00:36:51;;;;;;;7.88;3.60;;;1.10;99.90;;;;;;4973362;28;20499;-60
2024/01/05 00:39:18;;;;;;;10.48;3.65;;;1.10;99.90;;;;;;4940532;28;20066;-58
2024/01/05 00:41:46;;;;;;;11.65;4.00;;;1.00;99.90;;;;;;4973749;28;20050;-60
2024/01/05 00:44:14;;;;;;;7.55;3.90;;;1.00;99.90;;;;;;4957132;28;20058;-60
2024/01/05 00:46:40;;;;;;;8.35;4.03;;;1.00;99.90;;;;;;4955306;28;20051;-60
2024/01/05 00:49:08;;;;;;;7.75;3.38;;;0.90;99.90;;;;;;4971666;28;20043;-59
2024/01/05 00:51:35;;;;;;;9.77;4.00;;;0.90;99.90;;;;;;4958815;28;20481;-60
2024/01/05 00:54:01;;;;;;;11.25;5.28;;;0.80;99.90;;;;;;4966332;28;20043;-60
2024/01/05 00:56:29;;;;;;;9.85;4.50;;;0.80;99.90;;;;;;4969748;28;20049;-60
2024/01/05 00:58:56;;;;;;;14.05;3.78;;;0.80;99.90;;;;;;4969658;28;20035;-59
2024/01/05 01:01:23;;;;;;;12.18;3.92;;;0.80;99.90;;;;;;4972751;28;20035;-59
2024/01/05 01:03:50;;;;;;;8.77;4.10;;;0.80;99.90;;;;;;4949933;28;20436;-59
2024/01/05 01:06:17;;;;;;;7.95;3.53;;;0.80;99.90;;;;;;4943731;28;20039;-58
2024/01/05 01:08:43;;;;;;;9.40;3.38;;;0.80;99.90;;;;;;4973114;28;20038;-59
2024/01/05 01:11:15;;;;;;;5.85;3.17;;;0.80;99.90;;;;;;4954772;28;20393;-61
2024/01/05 01:13:42;;;;;;;7.05;3.10;;;0.80;99.90;;;;;;4972956;28;20047;-60
2024/01/05 01:16:09;;;;;;;;;;;0.80;99.90;;;;;;4938525;28;20054;-59
2024/01/05 01:18:36;;;;;;;6.38;3.22;;;0.80;99.90;;;;;;4952823;28;19922;-58
2024/01/05 01:21:03;;;;;;;6.60;3.33;;;0.80;99.90;;;;;;4965164;28;20034;-59
2024/01/05 01:23:30;;;;;;;5.63;3.10;;;0.80;99.90;;;;;;4947510;28;20058;-60
2024/01/05 01:25:57;;;;;;;4.43;2.25;;;0.80;99.90;;;;;;4973109;28;20042;-60
2024/01/05 01:28:24;;;;;;;8.60;2.50;;;0.80;99.90;;;;;;4970333;28;20035;-61
2024/01/05 01:30:51;;;;;;;6.18;2.65;;;0.80;99.90;;;;;;4960047;28;20039;-60
2024/01/05 01:33:18;;;;;;;6.30;2.75;;;0.80;99.90;;;;;;4972000;28;20117;-58
2024/01/05 01:35:45;;;;;;;5.80;2.88;;;0.80;99.90;;;;;;4967928;28;20123;-58
2024/01/05 01:38:12;;;;;;;7.82;3.08;;;0.90;99.90;;;;;;4955087;28;20058;-60
2024/01/05 01:40:38;;;;;;;4.13;2.15;;;0.90;99.90;;;;;;4969098;28;20042;-58
2024/01/05 01:43:05;;;;;;;4.43;1.77;;;0.90;99.90;;;;;;4972203;28;20046;-60
2024/01/05 01:45:32;;;;;;;5.65;2.97;;;0.90;99.90;;;;;;4972355;28;20495;-60
2024/01/05 01:47:59;;;;;;;5.97;3.08;;;0.90;99.90;;;;;;4972631;28;20039;-61
2024/01/05 01:50:26;;;;;;;5.30;2.83;;;0.90;99.90;;;;;;4972439;28;20053;-58
2024/01/05 01:52:53;;;;;;;5.28;3.00;;;0.90;99.90;;;;;;4972414;28;20086;-59
2024/01/05 01:55:20;;;;;;;4.32;2.40;;;0.90;99.90;;;;;;4972174;28;20050;-60
2024/01/05 01:57:47;;;;;;;8.27;2.65;;;0.90;99.90;;;;;;4966982;28;20042;-60
2024/01/05 02:00:17;;;;;;;5.97;2.88;;;0.90;99.90;;;;;;4948997;28;20044;-59
2024/01/05 02:02:46;;;;;;;5.88;2.90;;;0.90;99.90;;;;;;4971198;28;20493;-60
2024/01/05 02:05:13;;;;;;;6.57;2.90;;;0.80;99.90;;;;;;4965412;28;20053;-59
2024/01/05 02:07:42;;;;;;;6.93;3.22;;;0.80;99.90;;;;;;4964696;28;20044;-60
2024/01/05 02:10:09;;;;;;;7.53;3.05;;;0.80;99.90;;;;;;4961713;28;20126;-60
2024/01/05 02:12:36;;;;;;;7.30;3.30;;;0.80;99.90;;;;;;4961088;28;20121;-60
2024/01/05 02:15:03;;;;;;;5.60;2.90;;;0.80;99.90;;;;;;4966440;28;20039;-57
2024/01/05 02:17:31;;;;;;;7.80;3.30;;;0.80;99.90;;;;;;4960557;28;20055;-60
2024/01/05 02:19:59;;;;;;;4.93;3.00;;;0.80;99.90;;;;;;4960999;28;20051;-60
2024/01/05 02:22:29;;;;;;;8.45;3.05;;;0.80;99.90;;;;;;4971644;28;20488;-59
2024/01/05 02:24:57;;;;;;;7.32;2.60;;;0.80;99.90;;;;;;4971997;28;20046;-58
2024/01/05 02:27:25;;;;;;;6.93;2.50;;;0.80;99.90;;;;;;4971042;28;20384;-59
2024/01/05 02:29:51;;;;;;;7.15;3.10;;;0.80;99.90;;;;;;4972364;28;20101;-60
2024/01/05 02:32:18;;;;;;;6.85;3.10;;;0.80;99.90;;;;;;4969742;28;20047;-59
2024/01/05 02:34:45;;;;;;;5.32;2.50;;;0.80;99.90;;;;;;4966746;28;20043;-60
2024/01/05 02:37:12;;;;;;;4.90;2.63;;;0.90;99.90;;;;;;4970121;28;20051;-60
2024/01/05 02:39:39;;;;;;;5.22;2.33;;;0.90;99.90;;;;;;4971400;28;20391;-59
2024/01/05 02:42:06;;;;;;;5.55;2.58;;;0.90;99.90;;;;;;4969159;28;20043;-58
2024/01/05 02:44:33;;;;;;;4.30;2.33;;;0.90;99.90;;;;;;4971983;28;20042;-60
2024/01/05 02:46:59;;;;;;;8.23;3.13;;;0.90;99.90;;;;;;4963590;28;20125;-60
2024/01/05 02:49:26;;;;;;;5.50;2.90;;;1.00;99.90;;;;;;4971671;28;20042;-57
2024/01/05 02:51:53;;;;;;;5.15;2.55;;;1.00;99.90;;;;;;4953464;28;20047;-60
2024/01/05 02:54:20;;;;;;;5.45;2.67;;;1.10;99.90;;;;;;4972081;28;20050;-61
2024/01/05 02:56:46;;;;;;;3.63;2.40;;;1.10;99.90;;;;;;4969871;28;20539;-61
2024/01/05 02:59:14;;;;;;;6.00;2.65;;;1.10;99.90;;;;;;4953642;28;20404;-60
2024/01/05 03:01:40;;;;;;;3.80;2.28;;;1.20;99.90;;;;;;4967104;28;20054;-61
2024/01/05 03:04:07;;;;;;;4.15;2.03;;;1.30;99.90;;;;;;4968689;28;20043;-61
2024/01/05 03:06:34;;;;;;;5.22;2.40;;;1.30;99.90;;;;;;4964056;28;20039;-60
2024/01/05 03:09:01;;;;;;;4.15;2.17;;;1.30;99.90;;;;;;4972146;28;20101;-60
2024/01/05 03:11:28;;;;;;;4.63;2.30;;;1.30;99.90;;;;;;4971408;28;20393;-60
2024/01/05 03:13:55;;;;;;;3.50;1.60;;;1.30;99.90;;;;;;4975814;28;20518;-59
2024/01/05 03:16:21;;;;;;;6.65;2.50;;;1.30;99.90;;;;;;4974769;28;20444;-59
2024/01/05 03:18:48;;;;;;;5.10;2.28;;;1.30;99.90;;;;;;4975273;28;20388;-61
2024/01/05 03:21:15;;;;;;;4.90;2.10;;;1.30;99.90;;;;;;4972324;28;20054;-60
2024/01/05 03:23:42;;;;;;;6.57;2.13;;;1.20;99.90;;;;;;4968733;28;20043;-60
2024/01/05 03:26:09;;;;;;;5.00;2.20;;;1.20;99.90;;;;;;4974582;28;20527;-60
2024/01/05 03:28:38;;;;;;;4.55;2.15;;;1.20;99.90;;;;;;4975858;28;20380;-61
2024/01/05 03:31:10;;;;;;;4.00;2.10;;;1.20;99.90;;;;;;4974893;28;20039;-61
2024/01/05 03:33:37;;;;;;;4.55;2.13;;;1.20;99.90;;;;;;4971641;28;20098;-60
2024/01/05 03:36:04;;;;;;;9.45;2.58;;;1.10;99.90;;;;;;4970342;28;20046;-60
2024/01/05 03:38:31;;;;;;;4.07;2.08;;;1.10;99.90;;;;;;4964078;28;20035;-60
2024/01/05 03:40:57;;;;;;;7.65;2.80;;;1.10;99.90;;;;;;4963282;28;20039;-60
2024/01/05 03:43:24;;;;;;;5.75;2.55;;;1.00;99.90;;;;;;4972345;28;20045;-59
2024/01/05 03:45:51;;;;;;;4.03;2.35;;;1.00;99.90;;;;;;4969611;28;20044;-61
2024/01/05 03:48:18;;;;;;;5.25;2.50;;;1.00;99.90;;;;;;4971809;28;20065;-61
2024/01/05 03:50:45;;;;;;;5.88;2.83;;;0.90;99.90;;;;;;4974023;28;20472;-59
2024/01/05 03:53:12;;;;;;;7.18;2.70;;;0.90;99.90;;;;;;4972000;28;20035;-60
2024/01/05 03:55:38;;;;;;;5.68;2.10;;;0.90;99.90;;;;;;4966658;28;20414;-60
2024/01/05 03:58:06;;;;;;;2.97;1.55;;;0.90;99.90;;;;;;4974924;28;20476;-61
2024/01/05 04:00:33;;;;;;;5.95;2.28;;;0.90;99.90;;;;;;4970658;28;20047;-61
2024/01/05 04:03:00;;;;;;;6.05;1.95;;;0.90;99.90;;;;;;4975077;28;20045;-59
2024/01/05 04:05:27;;;;;;;4.53;2.08;;;0.90;99.90;;;;;;4972756;28;20385;-59
2024/01/05 04:07:54;;;;;;;5.68;2.13;;;0.90;99.90;;;;;;4969358;28;20050;-60
2024/01/05 04:10:20;;;;;;;2.10;1.17;;;0.90;99.90;;;;;;4971332;28;20043;-60
2024/01/05 04:12:47;;;;;;;3.30;1.92;;;0.90;99.90;;;;;;4974860;28;20050;-60
2024/01/05 04:15:14;;;;;;;5.10;2.28;;;0.90;99.90;;;;;;4971025;28;20039;-61
2024/01/05 04:17:41;;;;;;;7.47;2.00;;;0.90;99.90;;;;;;4974712;28;20053;-60
2024/01/05 04:20:08;;;;;;;3.92;2.28;;;0.90;99.90;;;;;;4965586;28;20531;-59
2024/01/05 04:22:35;;;;;;;6.97;2.30;;;1.00;99.90;;;;;;4973961;28;20043;-60
2024/01/05 04:25:02;;;;;;;4.22;2.17;;;1.00;99.90;;;;;;4972725;28;20039;-61
2024/01/05 04:27:29;;;;;;;5.22;1.90;;;1.00;99.90;;;;;;4971038;28;20034;-59
2024/01/05 04:29:56;;;;;;;7.03;2.47;;;0.90;99.90;;;;;;4971494;28;20038;-60
2024/01/05 04:32:23;;;;;;;4.72;2.60;;;0.90;99.90;;;;;;4974408;28;20391;-59
2024/01/05 04:34:50;;;;;;;5.25;2.70;;;0.90;99.90;;;;;;4967023;28;20455;-60
2024/01/05 04:37:17;;;;;;;3.95;1.77;;;0.90;99.90;;;;;;4951806;28;20829;-60
2024/01/05 04:39:44;;;;;;;3.60;2.20;;;0.90;99.90;;;;;;4966113;28;20482;-58
2024/01/05 04:42:12;;;;;;;8.80;3.55;;;0.90;99.90;;;;;;4973745;28;20047;-60
2024/01/05 04:44:39;;;;;;;6.97;2.70;;;0.90;99.90;;;;;;4970032;28;20093;-60
2024/01/05 04:47:05;;;;;;;3.38;1.92;;;0.90;99.90;;;;;;4965250;28;20031;-60
2024/01/05 04:49:33;;;;;;;6.30;2.58;;;0.90;99.90;;;;;;4972555;28;20053;-59
2024/01/05 04:52:01;;;;;;;5.20;2.10;;;0.90;99.90;;;;;;4973611;28;20094;-59
2024/01/05 04:54:28;;;;;;;4.93;2.17;;;0.90;99.90;;;;;;4973270;28;20564;-60
2024/01/05 04:56:54;;;;;;;5.82;2.10;;;0.90;99.90;;;;;;4972907;28;20043;-60
2024/01/05 04:59:22;;;;;;;7.13;2.47;;;0.90;99.90;;;;;;4973633;28;20134;-60
2024/01/05 05:01:49;;;;;;;8.15;3.83;;;0.90;99.90;;;;;;4959714;28;20053;-61
2024/01/05 05:04:17;;;;;;;3.92;2.60;;;0.90;99.90;;;;;;4973264;28;20074;-58
2024/01/05 05:06:45;;;;;;;6.95;2.92;;;0.90;99.90;;;;;;4964476;28;20038;-59
2024/01/05 05:09:12;;;;;;;7.38;2.97;;;0.90;99.90;;;;;;4972857;28;20053;-61
2024/01/05 05:11:43;;;;;;;8.63;3.40;;;1.00;99.90;;;;;;4962292;28;20522;-60
2024/01/05 05:14:10;;;;;;;6.45;3.08;;;0.90;99.90;;;;;;4973450;28;20444;-58
2024/01/05 05:16:37;;;;;;;6.10;3.03;;;1.00;99.90;;;;;;4970064;28;20043;-60
2024/01/05 05:19:04;;;;;;;5.13;2.80;;;1.00;99.90;;;;;;4967892;28;20038;-61
2024/01/05 05:21:31;;;;;;;;;;;0.90;99.90;;;;;;4967090;28;21898;-60
2024/01/05 05:23:58;;;;;;;5.20;2.92;;;1.00;99.90;;;;;;4973308;28;19961;-61
2024/01/05 05:26:25;;;;;;;9.35;3.00;;;1.00;99.90;;;;;;4964397;28;20614;-60
2024/01/05 05:28:51;;;;;;;6.35;2.90;;;1.00;99.90;;;;;;4969781;28;20070;-59
2024/01/05 05:31:18;;;;;;;7.82;3.47;;;1.00;99.90;;;;;;4972752;28;20039;-61
2024/01/05 05:33:45;;;;;;;6.13;2.95;;;1.00;99.90;;;;;;4970947;28;20042;-61
2024/01/05 05:36:12;;;;;;;6.00;3.20;;;1.10;99.90;;;;;;4972274;28;20105;-59
2024/01/05 05:38:39;;;;;;;9.38;2.67;;;1.00;99.90;;;;;;4969176;28;20042;-61
2024/01/05 05:41:05;;;;;;;4.43;2.10;;;1.10;99.90;;;;;;4961407;28;20487;-61
2024/01/05 05:43:32;;;;;;;10.25;3.20;;;1.10;99.90;;;;;;4970195;28;20043;-58
2024/01/05 05:45:59;;;;;;;9.02;3.20;;;1.10;99.90;;;;;;4972753;28;20046;-59
2024/01/05 05:48:26;;;;;;;6.28;3.50;;;1.10;99.90;;;;;;4971673;28;20047;-60
2024/01/05 05:50:53;;;;;;;7.85;3.83;;;1.00;99.90;;;;;;4971382;28;20039;-61
2024/01/05 05:53:20;;;;;;;9.38;3.97;;;1.00;99.90;;;;;;4956987;28;20047;-59
2024/01/05 05:55:46;;;;;;;7.18;3.47;;;1.00;99.90;;;;;;4964181;28;20061;-58
2024/01/05 05:58:13;;;;;;;6.88;2.97;;;1.00;99.90;;;;;;4948583;29;20488;-59
2024/01/05 06:00:40;;;;;;;9.32;3.83;;;1.00;99.90;;;;;;4970312;28;20058;-59
2024/01/05 06:03:07;;;;;;;9.52;3.90;;;1.00;99.90;;;;;;4967189;28;20078;-60
2024/01/05 06:05:38;;;;;;;8.52;3.85;;;1.10;99.90;;;;;;4970528;28;20031;-61
2024/01/05 06:08:05;;;;;;;9.95;4.90;;;1.10;99.90;;;;;;4967536;28;20067;-61
2024/01/05 06:10:31;;;;;;;13.15;4.50;;;1.10;99.90;;;;;;4966820;28;20129;-58
2024/01/05 06:12:58;;;;;;;7.90;3.17;;;1.10;99.90;;;;;;4972806;28;20504;-60
2024/01/05 06:15:25;;;;;;;9.68;3.85;;;1.10;99.90;;;;;;4971575;28;20055;-61
2024/01/05 06:17:52;;;;;;;9.02;3.47;;;1.10;99.90;;;;;;4961499;28;20043;-60
2024/01/05 06:20:19;;;;;;;6.68;3.13;;;1.10;99.90;;;;;;4967087;28;20504;-60
2024/01/05 06:22:46;;;;;;;5.18;2.78;;;1.10;99.90;;;;;;4969383;28;20047;-59
2024/01/05 06:25:12;;;;;;;5.95;2.67;;;1.10;99.90;;;;;;4966654;28;20043;-60
2024/01/05 06:27:39;;;;;;;10.13;2.97;;;1.10;99.90;;;;;;4972520;28;20121;-60
2024/01/05 06:30:10;;;;;;;7.00;3.17;;;1.10;99.90;;;;;;4966929;28;20040;-59
2024/01/05 06:32:40;;;;;;;8.82;3.45;;;1.10;99.90;;;;;;4958558;28;20050;-60
2024/01/05 06:35:08;;;;;;;9.65;4.03;;;1.00;99.90;;;;;;4966582;28;20043;-59
2024/01/05 06:37:34;;;;;;;;;;;1.00;99.90;;;;;;4964243;28;20053;-60
2024/01/05 06:40:01;;;;;;;9.57;3.38;;;1.00;99.90;;;;;;4967573;28;19925;-59
2024/01/05 06:42:28;;;;;;;12.05;3.85;;;1.10;99.90;;;;;;4972105;28;20054;-60
2024/01/05 06:44:55;;;;;;;7.03;3.33;;;1.10;99.90;;;;;;4971833;28;20049;-61
2024/01/05 06:47:22;;;;;;;9.90;4.00;;;1.10;99.90;;;;;;4957546;28;20051;-60
2024/01/05 06:49:49;;;;;;;6.68;2.42;;;1.00;99.90;;;;;;4975169;28;20503;-61
2024/01/05 06:52:16;;;;;;;8.98;4.00;;;1.10;99.90;;;;;;4975142;28;20587;-60
2024/01/05 06:54:43;;;;;;;10.13;3.55;;;1.10;99.90;;;;;;4975341;28;20105;-60
2024/01/05 06:57:10;;;;;;;6.47;3.22;;;1.10;99.90;;;;;;4975514;28;20058;-61
2024/01/05 06:59:39;;;;;;;8.25;3.33;;;1.20;99.90;;;;;;4967332;28;20102;-57
2024/01/05 07:02:05;;;;;;;7.85;3.85;;;1.20;99.90;;;;;;4973322;28;20054;-61
2024/01/05 07:04:32;;;;;;;7.85;3.85;;;1.10;99.90;;;;;;4971685;28;20046;-59
2024/01/05 07:06:59;;;;;;;10.38;3.97;;;1.10;99.90;;;;;;4975331;28;20034;-60
2024/01/05 07:09:26;;;;;;;11.10;4.07;;;1.20;99.90;;;;;;4967533;28;20048;-58
2024/01/05 07:11:53;;;;;;;13.25;5.28;;;1.20;99.90;;;;;;4975269;28;20465;-61
2024/01/05 07:14:20;;;;;;;10.93;5.13;;;1.20;99.90;;;;;;4972357;28;20458;-60
2024/01/05 07:16:48;;;;;;;14.82;6.40;;;1.30;99.90;;;;;;4973687;28;20440;-59
2024/01/05 07:19:15;;;;;;;13.32;5.25;;;1.30;99.90;;;;;;4967719;28;20035;-60
2024/01/05 07:21:45;;;;;;;11.15;4.80;;;1.30;99.90;;;;;;4975303;28;20053;-58
2024/01/05 07:24:15;;;;;;;9.70;5.50;;;1.40;99.90;;;;;;4966410;28;20135;-60
2024/01/05 07:26:43;;;;;;;8.95;4.95;;;1.40;99.90;;;;;;4975368;28;20578;-60
2024/01/05 07:29:10;;;;;;;12.63;6.40;;;1.40;99.90;;;;;;4975337;28;20069;-60
2024/01/05 07:31:36;;;;;;;14.77;6.90;;;1.50;99.90;;;;;;4973712;28;20043;-60
2024/01/05 07:34:03;;;;;;;13.60;5.80;;;1.50;99.90;;;;;;4972378;28;20070;-61
2024/01/05 07:36:30;;;;;;;15.50;6.93;;;1.50;99.90;;;;;;4971162;28;20057;-59
2024/01/05 07:38:59;;;;;;;9.55;5.22;;;1.60;99.90;;;;;;4975007;28;20106;-61
2024/01/05 07:41:29;;;;;;;11.52;4.88;;;1.60;99.90;;;;;;4975438;28;20113;-61
2024/01/05 07:43:55;;;;;;;9.85;4.22;;;1.70;99.90;;;;;;4974082;28;20039;-61
2024/01/05 07:46:25;;;;;;;8.25;4.03;;;1.70;99.90;;;;;;4967642;28;20053;-59
2024/01/05 07:48:52;;;;;;;8.55;4.35;;;1.80;99.90;;;;;;4966303;28;20089;-61
2024/01/05 07:51:19;;;;;;;10.82;4.95;;;1.80;99.90;;;;;;4968499;28;20135;-62
2024/01/05 07:53:48;;;;;;;8.20;4.65;;;1.80;99.90;;;;;;4967761;28;20035;-61
2024/01/05 07:56:18;;;;;;;8.43;5.00;;;1.80;99.90;;;;;;4969914;28;20551;-60
2024/01/05 07:58:45;;;;;;;13.18;6.82;;;1.90;99.90;;;;;;4965375;28;20057;-61
2024/01/05 08:01:17;;;;;;;29.65;13.90;;;2.00;99.90;;;;;;4966096;28;20043;-61
2024/01/05 08:03:44;;;;;;;19.00;7.93;;;2.00;99.90;;;;;;4972251;28;20054;-61
2024/01/05 08:06:15;;;;;;;11.20;5.50;;;2.00;99.90;;;;;;4974849;28;20066;-60
2024/01/05 08:08:44;;;;;;;7.78;3.17;;;2.00;99.90;;;;;;4971343;28;20492;-60
2024/01/05 08:11:12;;;;;;;7.97;3.58;;;2.00;99.90;;;;;;4972125;28;20050;-60
2024/01/05 08:13:42;;;;;;;7.18;3.83;;;2.00;99.90;;;;;;4974375;28;20047;-61
2024/01/05 08:16:10;;;;;;;10.43;4.32;;;2.00;99.90;;;;;;4970663;28;20043;-61
2024/01/05 08:18:38;;;;;;;13.73;4.35;;;2.00;99.90;;;;;;4973397;28;20485;-59
2024/01/05 08:21:05;;;;;;;7.50;4.03;;;2.00;99.90;;;;;;4967781;28;20070;-61
2024/01/05 08:23:32;;;;;;;6.47;3.40;;;2.10;99.90;;;;;;4973414;28;20409;-59
2024/01/05 08:25:59;;;;;;;8.40;3.78;;;2.10;99.90;;;;;;4972497;28;20050;-57
2024/01/05 08:28:26;;;;;;;;;;;2.10;99.90;;;;;;4974540;28;20051;-59
2024/01/05 08:30:53;;;;;;;6.47;3.60;;;2.20;99.90;;;;;;4974156;28;19930;-61
2024/01/05 08:33:23;;;;;;;12.23;4.55;;;2.20;99.90;;;;;;4970048;28;20307;-60
2024/01/05 08:35:50;;;;;;;12.73;5.70;;;2.30;99.90;;;;;;4973348;28;20496;-60
2024/01/05 08:38:17;;;;;;;15.50;7.50;;;2.30;99.90;;;;;;4971881;28;20039;-61
2024/01/05 08:40:45;;;;;;;13.57;7.00;;;2.40;99.90;;;;;;4969140;28;20043;-59
2024/01/05 08:43:11;;;;;;;11.82;7.00;;;2.50;99.90;;;;;;4967950;28;20065;-61
2024/01/05 08:45:38;;;;;;;16.13;7.00;;;2.60;99.90;;;;;;4948162;28;20517;-61
2024/01/05 08:48:05;;;;;;;24.27;9.93;;;2.70;99.90;;;;;;4969897;28;20106;-59
2024/01/05 08:50:34;;;;;;;16.40;7.65;;;2.70;99.90;;;;;;4965629;28;20043;-61
2024/01/05 08:53:01;;;;;;;16.15;6.13;;;2.80;99.90;;;;;;4961897;28;20062;-60
2024/01/05 08:55:28;;;;;;;13.45;5.80;;;2.80;99.90;;;;;;4968653;28;20047;-61
2024/01/05 08:57:55;;;;;;;12.65;5.95;;;2.80;99.90;;;;;;4973823;28;20042;-60
2024/01/05 09:00:22;;;;;;;10.93;5.70;;;2.80;99.90;;;;;;4972555;28;20145;-59
2024/01/05 09:02:49;;;;;;;13.50;6.15;;;2.80;99.90;;;;;;4973628;28;20050;-60
2024/01/05 09:05:16;;;;;;;15.82;6.53;;;2.90;99.90;;;;;;4969125;28;20047;-58
2024/01/05 09:07:42;;;;;;;9.93;5.00;;;2.90;99.90;;;;;;4969945;28;20042;-60
2024/01/05 09:10:09;;;;;;;12.18;5.63;;;2.90;99.90;;;;;;4954503;28;20499;-61
2024/01/05 09:12:37;;;;;;;11.68;5.15;;;2.90;99.90;;;;;;4973563;28;20049;-61
2024/01/05 09:15:05;;;;;;;16.45;6.13;;;2.90;99.90;;;;;;4972616;28;20043;-61
2024/01/05 09:17:32;;;;;;;11.40;5.20;;;3.00;99.90;;;;;;4973330;28;20126;-61
2024/01/05 09:19:59;;;;;;;14.88;6.25;;;3.00;99.90;;;;;;4967182;28;20105;-60
2024/01/05 09:22:26;;;;;;;12.23;6.13;;;3.10;99.90;;;;;;4962903;28;20049;-60
2024/01/05 09:24:53;;;;;;;10.82;5.63;;;3.10;99.90;;;;;;4968564;28;20047;-60
2024/01/05 09:27:20;;;;;;;12.45;5.97;;;3.20;99.90;;;;;;4967638;28;20058;-61
2024/01/05 09:29:46;;;;;;;13.52;5.78;;;3.20;99.90;;;;;;4962846;28;20071;-60
2024/01/05 09:32:15;;;;;;;9.85;5.70;;;3.20;99.90;;;;;;4969205;28;20531;-60
2024/01/05 09:34:43;;;;;;;10.77;6.03;;;3.30;99.90;;;;;;4967293;28;20047;-61
2024/01/05 09:37:10;;;;;;;11.30;6.07;;;3.40;99.90;;;;;;4965291;28;20043;-61
2024/01/05 09:39:37;;;;;;;14.77;6.28;;;3.30;99.90;;;;;;4962471;28;20058;-61
2024/01/05 09:42:04;;;;;;;14.35;7.32;;;3.30;99.90;;;;;;4965571;28;20050;-63
2024/01/05 09:44:32;;;;;;;13.20;5.47;;;3.50;99.90;;;;;;4968633;28;20042;-61
2024/01/05 09:46:59;;;;;;;13.82;5.95;;;3.50;99.90;;;;;;4964258;28;20439;-60
2024/01/05 09:49:26;;;;;;;10.88;5.18;;;3.50;99.90;;;;;;4965053;28;20039;-59
2024/01/05 09:51:56;;;;;;;10.75;5.20;;;3.50;99.90;;;;;;4963650;28;20097;-61
2024/01/05 09:54:23;;;;;;;10.85;5.38;;;3.60;99.90;;;;;;4965256;28;20040;-59
2024/01/05 09:56:50;;;;;;;18.13;6.68;;;3.70;99.90;;;;;;4969431;28;20055;-60
2024/01/05 09:59:19;;;;;;;11.60;5.68;;;3.70;99.90;;;;;;4972466;28;20089;-57
2024/01/05 10:01:50;;;;;;;12.70;5.65;;;3.80;99.90;;;;;;4967770;28;20661;-60
2024/01/05 10:04:19;;;;;;;12.73;6.15;;;3.80;99.90;;;;;;4964579;28;20049;-61
2024/01/05 10:06:46;;;;;;;23.55;8.45;;;3.90;99.90;;;;;;4965486;28;20047;-60
2024/01/05 10:09:13;;;;;;;16.42;6.55;;;3.90;99.90;;;;;;4963853;28;20061;-60
2024/01/05 10:11:42;;;;;;;16.02;6.50;;;3.90;99.90;;;;;;4959882;28;20043;-60
2024/01/05 10:14:13;;;;;;;15.70;5.72;;;4.00;99.90;;;;;;4969379;28;20519;-60
2024/01/05 10:16:40;;;;;;;11.90;4.63;;;4.00;99.90;;;;;;4967520;28;20540;-58
2024/01/05 10:19:11;;;;;;;12.50;5.35;;;4.00;99.90;;;;;;4966814;28;20109;-59
2024/01/05 10:21:39;;;;;;;11.77;5.00;;;4.10;99.90;;;;;;4967690;28;20038;-61
2024/01/05 10:24:15;;;;;;;9.35;5.07;;;4.20;99.90;;;;;;4971940;28;20077;-61
2024/01/05 10:26:45;;;;;;;;;;;4.20;99.90;;;;;;4971443;28;20047;-61
2024/01/05 10:29:14;;;;;;;13.33;4.93;;;4.30;99.90;;;;;;4970223;28;19928;-61
2024/01/05 10:31:41;;;;;;;16.77;6.63;;;4.30;99.90;;;;;;4971556;28;20782;-60
2024/01/05 10:34:08;;;;;;;14.60;7.18;;;4.40;99.90;;;;;;4969967;28;20047;-60
2024/01/05 10:36:35;;;;;;;15.70;8.25;;;4.40;99.90;;;;;;4971309;28;20049;-61
2024/01/05 10:39:03;;;;;;;15.05;6.93;;;4.40;99.90;;;;;;4970760;28;20543;-61
2024/01/05 10:41:30;;;;;;;;;;;4.40;99.90;;;;;;4968040;28;20061;-61
2024/01/05 10:43:58;;;;;;;8.52;5.03;;;4.50;99.90;;;;;;4971870;28;19930;-61
2024/01/05 10:46:25;;;;;;;11.02;4.30;;;4.60;99.90;;;;;;4972895;28;20412;-60
2024/01/05 10:48:53;;;;;;;8.95;4.25;;;4.70;99.90;;;;;;4971006;28;20050;-61
2024/01/05 10:51:23;;;;;;;7.55;3.53;;;4.70;99.90;;;;;;4971098;28;20093;-61
2024/01/05 10:53:50;;;;;;;18.92;5.45;;;4.70;99.90;;;;;;4970609;28;20674;-61
2024/01/05 10:56:19;;;;;;;9.25;3.78;;;4.90;99.90;;;;;;4970430;28;20480;-60
2024/01/05 10:58:49;;;;;;;9.43;4.40;;;5.10;99.90;;;;;;4969402;28;20042;-61
2024/01/05 11:01:19;;;;;;;12.18;5.13;;;5.30;99.90;;;;;;4970408;28;20035;-61
2024/01/05 11:03:50;;;;;;;12.55;5.15;;;5.40;99.90;;;;;;4952714;28;20043;-61
2024/01/05 11:06:18;;;;;;;12.25;5.07;;;5.30;99.90;;;;;;4970247;28;20067;-61
2024/01/05 11:08:51;;;;;;;16.88;6.25;;;5.30;99.90;;;;;;4969497;28;20546;-60
2024/01/05 11:11:39;;;;;;;17.02;6.60;;;5.20;99.90;;;;;;4970312;28;20117;-62
2024/01/05 11:14:26;;;;;;;17.67;6.85;;;5.20;99.90;;;;;;4968702;28;20070;-61
2024/01/05 11:17:24;;;;;;;19.75;7.38;;;5.20;99.90;;;;;;4970267;28;20048;-60
2024/01/05 11:20:27;;;;;;;16.42;5.95;;;5.20;99.90;;;;;;4969151;28;20053;-61
2024/01/05 11:22:56;;;;;;;12.82;5.55;;;5.10;99.90;;;;;;4938268;28;20054;-61
2024/01/05 11:25:23;;;;;;;11.65;6.35;;;5.20;99.90;;;;;;4970543;28;20050;-61
2024/01/05 11:27:50;;;;;;;13.68;6.00;;;5.30;99.90;;;;;;4970746;28;20161;-61
2024/01/05 11:30:36;;;;;;;;;;;5.30;99.90;;;;;;4968429;28;20046;-61
2024/01/05 11:33:03;;;;;;;8.35;4.53;;;5.30;99.90;;;;;;4969225;28;20418;-61
2024/01/05 11:35:36;;;;;;;9.20;4.20;;;5.40;99.90;;;;;;4970407;28;20046;-59
2024/01/05 11:38:25;;;;;;;12.48;5.25;;;5.40;99.90;;;;;;4970256;28;20105;-58
2024/01/05 11:40:52;;;;;;;;;;;5.30;99.90;;;;;;4969329;28;20382;-58
2024/01/05 11:43:33;;;;;;;8.85;4.50;;;5.20;99.90;;;;;;4969536;28;20009;-61
2024/01/05 11:45:59;;;;;;;12.68;4.38;;;5.20;99.90;;;;;;4969133;28;20132;-60
2024/01/05 11:48:35;;;;;;;10.13;5.18;;;5.00;99.90;;;;;;4970216;28;20035;-60
2024/01/05 11:51:12;;;;;;;;;;;4.90;99.90;;;;;;4969141;28;20078;-60
2024/01/05 11:53:39;;;;;;;30.45;11.23;;;4.90;99.90;;;;;;4969507;28;20462;-60
2024/01/05 11:56:11;;;;;;;22.00;7.28;;;4.80;99.90;;;;;;4969410;28;20047;-59
2024/01/05 11:58:42;;;;;;;18.27;7.75;;;4.70;99.90;;;;;;4969816;28;20062;-60
2024/01/05 12:01:11;;;;;;;16.40;8.65;;;4.70;99.90;;;;;;4967612;28;20046;-60
2024/01/05 12:03:38;;;;;;;16.77;8.35;;;4.70;99.90;;;;;;4970568;28;20046;-61
2024/01/05 12:06:09;;;;;;;17.42;5.25;;;4.70;99.90;;;;;;4970518;28;20042;-57
2024/01/05 12:08:38;;;;;;;15.60;6.45;;;4.70;99.90;;;;;;4971210;28;20049;-60
2024/01/05 12:11:08;;;;;;;15.75;7.18;;;4.70;99.90;;;;;;4969169;28;20049;-59
2024/01/05 12:13:36;;;;;;;16.90;7.65;;;4.80;99.90;;;;;;4970386;28;20030;-59
2024/01/05 12:16:05;;;;;;;16.52;7.95;;;4.80;99.90;;;;;;4969186;28;20043;-61
2024/01/05 12:18:44;;;;;;;20.10;8.50;;;4.80;99.90;;;;;;4969527;28;20078;-60
2024/01/05 12:21:14;;;;;;;19.75;8.18;;;4.70;99.90;;;;;;4969669;28;20042;-61
2024/01/05 12:23:51;;;;;;;16.75;6.07;;;4.70;99.90;;;;;;4970280;28;20053;-60
2024/01/05 12:26:18;;;;;;;16.80;6.82;;;4.60;99.90;;;;;;4969545;28;20558;-59
2024/01/05 12:28:47;;;;;;;12.82;6.55;;;4.60;99.90;;;;;;4969398;28;20500;-61
2024/01/05 12:31:14;;;;;;;15.32;6.80;;;4.60;99.90;;;;;;4969294;28;20491;-60
2024/01/05 12:33:42;;;;;;;;;;;4.70;99.90;;;;;;4970351;28;20129;-60
2024/01/05 12:36:12;;;;;;;16.80;7.13;;;4.60;99.90;;;;;;4969433;28;19934;-60
2024/01/05 12:38:40;;;;;;;15.68;6.85;;;4.70;99.90;;;;;;4968035;28;20763;-60
2024/01/05 12:41:09;;;;;;;18.05;6.93;;;4.60;99.90;;;;;;4968915;28;20130;-61
2024/01/05 12:43:49;;;;;;;15.70;8.15;;;4.70;99.90;;;;;;4969740;28;20499;-59
2024/01/05 12:46:22;;;;;;;20.67;9.40;;;4.80;99.90;;;;;;4968805;28;20047;-60
2024/01/05 12:48:50;;;;;;;32.35;11.00;;;4.90;99.90;;;;;;4968333;28;20043;-58
2024/01/05 12:51:22;;;;;;;33.03;11.68;;;5.00;99.90;;;;;;4970025;28;20130;-58
2024/01/05 12:54:01;;;;;;;38.85;13.73;;;5.10;99.90;;;;;;4969748;28;20126;-59
2024/01/05 12:56:28;;;;;;;28.17;10.35;;;5.20;99.90;;;;;;4969462;28;20062;-60
2024/01/05 12:58:55;;;;;;;25.42;10.43;;;5.30;99.90;;;;;;4969639;28;20498;-59